sensor_id;sensor_type;location;lat;lon;timestamp;P1;durP1;ratioP1;P2;durP2;ratioP2
32038;SDS011;18549;42.286;22.688;2023-04-06T00:00:06;10.97;;;8.80;;
32038;SDS011;18549;42.286;22.688;2023-04-06T00:02:34;12.47;;;9.23;;
32038;SDS011;18549;42.286;22.688;2023-04-06T00:05:01;12.90;;;9.80;;
32038;SDS011;18549;42.286;22.688;2023-04-06T00:07:28;10.67;;;9.47;;
32038;SDS011;18549;42.286;22.688;2023-04-06T00:09:55;9.90;;;8.90;;
32038;SDS011;18549;42.286;22.688;2023-04-06T00:12:22;10.63;;;8.23;;
32038;SDS011;18549;42.286;22.688;2023-04-06T00:14:50;9.70;;;8.30;;
32038;SDS011;18549;42.286;22.688;2023-04-06T00:17:17;10.80;;;8.63;;
32038;SDS011;18549;42.286;22.688;2023-04-06T00:19:43;9.20;;;8.27;;
32038;SDS011;18549;42.286;22.688;2023-04-06T00:22:10;9.00;;;8.10;;
32038;SDS011;18549;42.286;22.688;2023-04-06T00:24:37;10.60;;;7.70;;
32038;SDS011;18549;42.286;22.688;2023-04-06T00:27:04;9.30;;;8.17;;
32038;SDS011;18549;42.286;22.688;2023-04-06T00:29:31;10.37;;;9.33;;
32038;SDS011;18549;42.286;22.688;2023-04-06T00:31:59;9.17;;;7.83;;
32038;SDS011;18549;42.286;22.688;2023-04-06T00:34:26;8.83;;;7.70;;
32038;SDS011;18549;42.286;22.688;2023-04-06T00:36:53;9.27;;;8.27;;
32038;SDS011;18549;42.286;22.688;2023-04-06T00:39:19;9.03;;;7.93;;
32038;SDS011;18549;42.286;22.688;2023-04-06T00:41:49;9.20;;;7.93;;
32038;SDS011;18549;42.286;22.688;2023-04-06T00:44:17;12.03;;;8.63;;
32038;SDS011;18549;42.286;22.688;2023-04-06T00:46:44;9.50;;;8.20;;
32038;SDS011;18549;42.286;22.688;2023-04-06T00:49:13;12.03;;;8.50;;
32038;SDS011;18549;42.286;22.688;2023-04-06T00:51:40;13.47;;;8.77;;
32038;SDS011;18549;42.286;22.688;2023-04-06T00:54:07;9.67;;;7.80;;
32038;SDS011;18549;42.286;22.688;2023-04-06T00:56:34;10.70;;;8.80;;
32038;SDS011;18549;42.286;22.688;2023-04-06T00:59:01;9.33;;;8.37;;
32038;SDS011;18549;42.286;22.688;2023-04-06T01:01:28;14.23;;;11.03;;
32038;SDS011;18549;42.286;22.688;2023-04-06T01:03:57;12.17;;;9.93;;
32038;SDS011;18549;42.286;22.688;2023-04-06T01:06:26;14.63;;;10.33;;
32038;SDS011;18549;42.286;22.688;2023-04-06T01:08:52;15.90;;;10.87;;
32038;SDS011;18549;42.286;22.688;2023-04-06T01:11:19;12.30;;;10.57;;
32038;SDS011;18549;42.286;22.688;2023-04-06T01:13:46;12.67;;;11.33;;
32038;SDS011;18549;42.286;22.688;2023-04-06T01:16:14;15.83;;;12.37;;
32038;SDS011;18549;42.286;22.688;2023-04-06T01:18:41;16.10;;;12.03;;
32038;SDS011;18549;42.286;22.688;2023-04-06T01:21:08;16.70;;;12.97;;
32038;SDS011;18549;42.286;22.688;2023-04-06T01:23:42;25.40;;;15.77;;
32038;SDS011;18549;42.286;22.688;2023-04-06T01:26:10;22.47;;;14.50;;
32038;SDS011;18549;42.286;22.688;2023-04-06T01:28:37;18.03;;;14.13;;
32038;SDS011;18549;42.286;22.688;2023-04-06T01:31:03;22.33;;;15.83;;
32038;SDS011;18549;42.286;22.688;2023-04-06T01:33:30;26.00;;;17.23;;
32038;SDS011;18549;42.286;22.688;2023-04-06T01:35:57;22.83;;;16.93;;
32038;SDS011;18549;42.286;22.688;2023-04-06T01:38:24;27.53;;;16.33;;
32038;SDS011;18549;42.286;22.688;2023-04-06T01:40:53;19.50;;;14.13;;
32038;SDS011;18549;42.286;22.688;2023-04-06T01:43:20;26.77;;;15.90;;
32038;SDS011;18549;42.286;22.688;2023-04-06T01:45:47;22.17;;;15.53;;
32038;SDS011;18549;42.286;22.688;2023-04-06T01:48:13;24.40;;;15.93;;
32038;SDS011;18549;42.286;22.688;2023-04-06T01:50:40;26.37;;;17.60;;
32038;SDS011;18549;42.286;22.688;2023-04-06T01:53:07;24.37;;;17.93;;
32038;SDS011;18549;42.286;22.688;2023-04-06T01:55:34;22.03;;;16.53;;
32038;SDS011;18549;42.286;22.688;2023-04-06T01:58:02;23.47;;;15.70;;
32038;SDS011;18549;42.286;22.688;2023-04-06T02:00:29;21.80;;;14.73;;
32038;SDS011;18549;42.286;22.688;2023-04-06T02:02:55;21.77;;;14.83;;
32038;SDS011;18549;42.286;22.688;2023-04-06T02:05:22;22.53;;;15.97;;
32038;SDS011;18549;42.286;22.688;2023-04-06T02:07:49;21.30;;;14.87;;
32038;SDS011;18549;42.286;22.688;2023-04-06T02:10:16;22.37;;;14.83;;
32038;SDS011;18549;42.286;22.688;2023-04-06T02:12:43;19.90;;;15.30;;
32038;SDS011;18549;42.286;22.688;2023-04-06T02:15:11;18.57;;;14.80;;
32038;SDS011;18549;42.286;22.688;2023-04-06T02:17:39;20.57;;;16.07;;
32038;SDS011;18549;42.286;22.688;2023-04-06T02:20:06;19.83;;;14.97;;
32038;SDS011;18549;42.286;22.688;2023-04-06T02:22:34;23.53;;;16.50;;
32038;SDS011;18549;42.286;22.688;2023-04-06T02:25:01;24.43;;;16.33;;
32038;SDS011;18549;42.286;22.688;2023-04-06T02:27:28;19.50;;;16.43;;
32038;SDS011;18549;42.286;22.688;2023-04-06T02:29:55;27.67;;;18.03;;
32038;SDS011;18549;42.286;22.688;2023-04-06T02:32:23;22.47;;;17.17;;
32038;SDS011;18549;42.286;22.688;2023-04-06T02:34:51;18.93;;;14.13;;
32038;SDS011;18549;42.286;22.688;2023-04-06T02:37:18;17.10;;;14.20;;
32038;SDS011;18549;42.286;22.688;2023-04-06T02:39:45;21.47;;;14.43;;
32038;SDS011;18549;42.286;22.688;2023-04-06T02:42:12;17.77;;;12.13;;
32038;SDS011;18549;42.286;22.688;2023-04-06T02:44:40;14.20;;;12.33;;
32038;SDS011;18549;42.286;22.688;2023-04-06T02:47:09;14.60;;;12.33;;
32038;SDS011;18549;42.286;22.688;2023-04-06T02:49:37;14.17;;;12.60;;
32038;SDS011;18549;42.286;22.688;2023-04-06T02:52:04;16.77;;;13.53;;
32038;SDS011;18549;42.286;22.688;2023-04-06T02:54:31;18.87;;;14.60;;
32038;SDS011;18549;42.286;22.688;2023-04-06T02:56:58;19.30;;;15.37;;
32038;SDS011;18549;42.286;22.688;2023-04-06T02:59:25;15.93;;;13.47;;
32038;SDS011;18549;42.286;22.688;2023-04-06T03:01:51;14.07;;;12.57;;
32038;SDS011;18549;42.286;22.688;2023-04-06T03:04:18;13.27;;;11.80;;
32038;SDS011;18549;42.286;22.688;2023-04-06T03:06:48;16.33;;;13.27;;
32038;SDS011;18549;42.286;22.688;2023-04-06T03:09:15;16.83;;;11.93;;
32038;SDS011;18549;42.286;22.688;2023-04-06T03:11:42;14.23;;;12.73;;
32038;SDS011;18549;42.286;22.688;2023-04-06T03:14:09;14.43;;;12.30;;
32038;SDS011;18549;42.286;22.688;2023-04-06T03:16:37;15.33;;;13.00;;
32038;SDS011;18549;42.286;22.688;2023-04-06T03:19:03;14.83;;;12.50;;
32038;SDS011;18549;42.286;22.688;2023-04-06T03:21:30;17.00;;;14.53;;
32038;SDS011;18549;42.286;22.688;2023-04-06T03:23:58;21.93;;;13.93;;
32038;SDS011;18549;42.286;22.688;2023-04-06T03:26:25;17.30;;;13.37;;
32038;SDS011;18549;42.286;22.688;2023-04-06T03:28:52;18.10;;;13.87;;
32038;SDS011;18549;42.286;22.688;2023-04-06T03:31:19;18.13;;;14.97;;
32038;SDS011;18549;42.286;22.688;2023-04-06T03:33:45;18.20;;;14.80;;
32038;SDS011;18549;42.286;22.688;2023-04-06T03:36:12;25.03;;;16.23;;
32038;SDS011;18549;42.286;22.688;2023-04-06T03:38:39;23.03;;;15.77;;
32038;SDS011;18549;42.286;22.688;2023-04-06T03:41:07;24.40;;;17.80;;
32038;SDS011;18549;42.286;22.688;2023-04-06T03:43:34;25.20;;;17.00;;
32038;SDS011;18549;42.286;22.688;2023-04-06T03:46:01;24.10;;;17.07;;
32038;SDS011;18549;42.286;22.688;2023-04-06T03:48:28;21.33;;;17.00;;
32038;SDS011;18549;42.286;22.688;2023-04-06T03:50:55;23.50;;;18.73;;
32038;SDS011;18549;42.286;22.688;2023-04-06T03:53:22;17.77;;;14.13;;
32038;SDS011;18549;42.286;22.688;2023-04-06T03:55:49;20.23;;;16.27;;
32038;SDS011;18549;42.286;22.688;2023-04-06T03:58:17;21.00;;;15.67;;
32038;SDS011;18549;42.286;22.688;2023-04-06T04:00:44;19.17;;;14.33;;
32038;SDS011;18549;42.286;22.688;2023-04-06T04:03:10;19.57;;;14.60;;
32038;SDS011;18549;42.286;22.688;2023-04-06T04:05:37;20.37;;;15.83;;
32038;SDS011;18549;42.286;22.688;2023-04-06T04:08:05;22.20;;;16.83;;
32038;SDS011;18549;42.286;22.688;2023-04-06T04:10:31;18.87;;;15.30;;
32038;SDS011;18549;42.286;22.688;2023-04-06T04:12:58;18.20;;;14.20;;
32038;SDS011;18549;42.286;22.688;2023-04-06T04:15:26;16.73;;;13.83;;
32038;SDS011;18549;42.286;22.688;2023-04-06T04:17:53;16.47;;;13.93;;
32038;SDS011;18549;42.286;22.688;2023-04-06T04:20:20;17.07;;;13.23;;
32038;SDS011;18549;42.286;22.688;2023-04-06T04:22:47;15.53;;;13.70;;
32038;SDS011;18549;42.286;22.688;2023-04-06T04:25:14;20.23;;;14.33;;
32038;SDS011;18549;42.286;22.688;2023-04-06T04:27:40;16.03;;;13.87;;
32038;SDS011;18549;42.286;22.688;2023-04-06T04:30:07;16.63;;;14.30;;
32038;SDS011;18549;42.286;22.688;2023-04-06T04:32:36;59.00;;;36.77;;
32038;SDS011;18549;42.286;22.688;2023-04-06T04:35:03;22.87;;;17.77;;
32038;SDS011;18549;42.286;22.688;2023-04-06T04:37:30;23.40;;;17.30;;
32038;SDS011;18549;42.286;22.688;2023-04-06T04:39:59;20.70;;;13.90;;
32038;SDS011;18549;42.286;22.688;2023-04-06T04:42:26;23.97;;;15.67;;
32038;SDS011;18549;42.286;22.688;2023-04-06T04:44:53;29.33;;;19.93;;
32038;SDS011;18549;42.286;22.688;2023-04-06T04:47:20;33.60;;;24.67;;
32038;SDS011;18549;42.286;22.688;2023-04-06T04:49:48;44.77;;;28.00;;
32038;SDS011;18549;42.286;22.688;2023-04-06T04:52:15;32.83;;;25.03;;
32038;SDS011;18549;42.286;22.688;2023-04-06T04:54:42;46.23;;;24.13;;
32038;SDS011;18549;42.286;22.688;2023-04-06T04:57:09;40.83;;;23.50;;
32038;SDS011;18549;42.286;22.688;2023-04-06T04:59:36;42.13;;;23.67;;
32038;SDS011;18549;42.286;22.688;2023-04-06T05:02:03;34.47;;;25.07;;
32038;SDS011;18549;42.286;22.688;2023-04-06T05:04:29;23.10;;;17.87;;
32038;SDS011;18549;42.286;22.688;2023-04-06T05:07:04;29.60;;;21.17;;
32038;SDS011;18549;42.286;22.688;2023-04-06T05:09:32;39.20;;;22.60;;
32038;SDS011;18549;42.286;22.688;2023-04-06T05:11:59;24.17;;;18.87;;
32038;SDS011;18549;42.286;22.688;2023-04-06T05:14:26;20.97;;;16.90;;
32038;SDS011;18549;42.286;22.688;2023-04-06T05:16:54;20.10;;;16.17;;
32038;SDS011;18549;42.286;22.688;2023-04-06T05:19:21;18.80;;;12.57;;
32038;SDS011;18549;42.286;22.688;2023-04-06T05:21:50;21.23;;;13.47;;
32038;SDS011;18549;42.286;22.688;2023-04-06T05:24:18;18.70;;;13.23;;
32038;SDS011;18549;42.286;22.688;2023-04-06T05:26:47;20.47;;;14.80;;
32038;SDS011;18549;42.286;22.688;2023-04-06T05:29:14;22.50;;;14.93;;
32038;SDS011;18549;42.286;22.688;2023-04-06T05:31:41;19.30;;;13.10;;
32038;SDS011;18549;42.286;22.688;2023-04-06T05:34:09;12.73;;;9.57;;
32038;SDS011;18549;42.286;22.688;2023-04-06T05:36:36;9.30;;;8.30;;
32038;SDS011;18549;42.286;22.688;2023-04-06T05:39:02;8.50;;;7.63;;
32038;SDS011;18549;42.286;22.688;2023-04-06T05:41:31;9.17;;;8.07;;
32038;SDS011;18549;42.286;22.688;2023-04-06T05:43:57;8.67;;;7.77;;
32038;SDS011;18549;42.286;22.688;2023-04-06T05:46:26;8.73;;;6.97;;
32038;SDS011;18549;42.286;22.688;2023-04-06T05:48:55;10.13;;;7.90;;
32038;SDS011;18549;42.286;22.688;2023-04-06T05:51:22;11.30;;;7.93;;
32038;SDS011;18549;42.286;22.688;2023-04-06T05:53:50;14.40;;;10.70;;
32038;SDS011;18549;42.286;22.688;2023-04-06T05:56:17;14.87;;;10.23;;
32038;SDS011;18549;42.286;22.688;2023-04-06T05:58:45;74.10;;;40.07;;
32038;SDS011;18549;42.286;22.688;2023-04-06T06:01:12;21.57;;;14.80;;
32038;SDS011;18549;42.286;22.688;2023-04-06T06:03:39;10.10;;;8.40;;
32038;SDS011;18549;42.286;22.688;2023-04-06T06:06:06;11.00;;;9.13;;
32038;SDS011;18549;42.286;22.688;2023-04-06T06:08:33;11.83;;;9.57;;
32038;SDS011;18549;42.286;22.688;2023-04-06T06:11:01;8.20;;;6.97;;
32038;SDS011;18549;42.286;22.688;2023-04-06T06:13:28;8.47;;;6.87;;
32038;SDS011;18549;42.286;22.688;2023-04-06T06:15:57;10.47;;;7.97;;
32038;SDS011;18549;42.286;22.688;2023-04-06T06:18:24;6.93;;;6.23;;
32038;SDS011;18549;42.286;22.688;2023-04-06T06:20:50;7.93;;;6.93;;
32038;SDS011;18549;42.286;22.688;2023-04-06T06:23:17;8.13;;;7.07;;
32038;SDS011;18549;42.286;22.688;2023-04-06T06:25:44;8.90;;;6.93;;
32038;SDS011;18549;42.286;22.688;2023-04-06T06:28:11;7.90;;;7.10;;
32038;SDS011;18549;42.286;22.688;2023-04-06T06:30:38;9.63;;;7.97;;
32038;SDS011;18549;42.286;22.688;2023-04-06T06:51:35;11.77;;;10.10;;
32038;SDS011;18549;42.286;22.688;2023-04-06T06:54:02;10.37;;;6.90;;
32038;SDS011;18549;42.286;22.688;2023-04-06T06:58:55;9.00;;;7.17;;
32038;SDS011;18549;42.286;22.688;2023-04-06T07:01:22;8.47;;;6.87;;
32038;SDS011;18549;42.286;22.688;2023-04-06T07:03:49;7.10;;;6.40;;
32038;SDS011;18549;42.286;22.688;2023-04-06T07:06:19;12.70;;;7.53;;
32038;SDS011;18549;42.286;22.688;2023-04-06T07:08:47;14.97;;;7.77;;
32038;SDS011;18549;42.286;22.688;2023-04-06T07:11:14;18.77;;;12.97;;
32038;SDS011;18549;42.286;22.688;2023-04-06T07:13:41;15.23;;;9.33;;
32038;SDS011;18549;42.286;22.688;2023-04-06T07:16:08;12.47;;;10.60;;
32038;SDS011;18549;42.286;22.688;2023-04-06T07:18:35;15.20;;;11.47;;
32038;SDS011;18549;42.286;22.688;2023-04-06T07:21:02;17.87;;;9.30;;
32038;SDS011;18549;42.286;22.688;2023-04-06T07:23:29;10.23;;;8.53;;
32038;SDS011;18549;42.286;22.688;2023-04-06T07:25:58;9.90;;;8.10;;
32038;SDS011;18549;42.286;22.688;2023-04-06T07:28:27;16.87;;;10.50;;
32038;SDS011;18549;42.286;22.688;2023-04-06T07:30:54;9.33;;;7.53;;
32038;SDS011;18549;42.286;22.688;2023-04-06T07:33:21;8.33;;;7.40;;
32038;SDS011;18549;42.286;22.688;2023-04-06T07:35:48;9.50;;;7.67;;
32038;SDS011;18549;42.286;22.688;2023-04-06T07:38:17;10.70;;;8.73;;
32038;SDS011;18549;42.286;22.688;2023-04-06T07:40:44;10.90;;;8.50;;
32038;SDS011;18549;42.286;22.688;2023-04-06T07:43:13;10.93;;;7.47;;
32038;SDS011;18549;42.286;22.688;2023-04-06T07:45:40;14.80;;;10.90;;
32038;SDS011;18549;42.286;22.688;2023-04-06T07:48:07;9.00;;;6.93;;
32038;SDS011;18549;42.286;22.688;2023-04-06T07:50:36;16.47;;;8.07;;
32038;SDS011;18549;42.286;22.688;2023-04-06T07:53:05;9.60;;;8.27;;
32038;SDS011;18549;42.286;22.688;2023-04-06T07:55:35;16.23;;;11.73;;
32038;SDS011;18549;42.286;22.688;2023-04-06T07:58:03;10.23;;;9.03;;
32038;SDS011;18549;42.286;22.688;2023-04-06T08:00:31;10.90;;;8.50;;
32038;SDS011;18549;42.286;22.688;2023-04-06T08:02:58;12.97;;;8.97;;
32038;SDS011;18549;42.286;22.688;2023-04-06T08:05:24;10.77;;;8.63;;
32038;SDS011;18549;42.286;22.688;2023-04-06T08:07:51;15.53;;;9.00;;
32038;SDS011;18549;42.286;22.688;2023-04-06T08:10:18;16.60;;;9.00;;
32038;SDS011;18549;42.286;22.688;2023-04-06T08:12:45;12.93;;;8.37;;
32038;SDS011;18549;42.286;22.688;2023-04-06T08:15:12;13.70;;;9.10;;
32038;SDS011;18549;42.286;22.688;2023-04-06T08:17:40;13.13;;;8.13;;
32038;SDS011;18549;42.286;22.688;2023-04-06T08:20:12;11.23;;;8.33;;
32038;SDS011;18549;42.286;22.688;2023-04-06T08:22:41;9.40;;;7.63;;
32038;SDS011;18549;42.286;22.688;2023-04-06T08:25:10;9.60;;;7.63;;
32038;SDS011;18549;42.286;22.688;2023-04-06T08:27:37;10.40;;;6.83;;
32038;SDS011;18549;42.286;22.688;2023-04-06T08:30:04;9.07;;;6.77;;
32038;SDS011;18549;42.286;22.688;2023-04-06T08:32:32;8.17;;;6.67;;
32038;SDS011;18549;42.286;22.688;2023-04-06T08:35:00;8.70;;;6.53;;
32038;SDS011;18549;42.286;22.688;2023-04-06T08:37:28;14.10;;;9.40;;
32038;SDS011;18549;42.286;22.688;2023-04-06T08:39:55;12.53;;;9.00;;
32038;SDS011;18549;42.286;22.688;2023-04-06T08:42:25;13.80;;;10.07;;
32038;SDS011;18549;42.286;22.688;2023-04-06T08:44:54;10.47;;;8.03;;
32038;SDS011;18549;42.286;22.688;2023-04-06T08:47:21;12.47;;;9.60;;
32038;SDS011;18549;42.286;22.688;2023-04-06T08:49:48;11.20;;;8.03;;
32038;SDS011;18549;42.286;22.688;2023-04-06T08:52:18;7.93;;;6.90;;
32038;SDS011;18549;42.286;22.688;2023-04-06T08:54:45;11.97;;;8.60;;
32038;SDS011;18549;42.286;22.688;2023-04-06T08:57:12;11.53;;;8.70;;
32038;SDS011;18549;42.286;22.688;2023-04-06T08:59:39;11.27;;;8.87;;
32038;SDS011;18549;42.286;22.688;2023-04-06T09:02:06;20.53;;;6.90;;
32038;SDS011;18549;42.286;22.688;2023-04-06T09:04:42;6.00;;;5.27;;
32038;SDS011;18549;42.286;22.688;2023-04-06T09:07:09;6.87;;;6.00;;
32038;SDS011;18549;42.286;22.688;2023-04-06T09:09:37;6.27;;;5.67;;
32038;SDS011;18549;42.286;22.688;2023-04-06T09:12:08;8.27;;;6.80;;
32038;SDS011;18549;42.286;22.688;2023-04-06T09:14:37;11.47;;;8.93;;
32038;SDS011;18549;42.286;22.688;2023-04-06T09:17:05;7.30;;;6.07;;
32038;SDS011;18549;42.286;22.688;2023-04-06T09:19:32;8.27;;;6.97;;
32038;SDS011;18549;42.286;22.688;2023-04-06T09:22:02;5.70;;;5.20;;
32038;SDS011;18549;42.286;22.688;2023-04-06T09:24:41;8.13;;;6.10;;
32038;SDS011;18549;42.286;22.688;2023-04-06T09:27:09;5.73;;;5.03;;
32038;SDS011;18549;42.286;22.688;2023-04-06T09:29:36;9.20;;;7.53;;
32038;SDS011;18549;42.286;22.688;2023-04-06T09:32:03;8.80;;;6.30;;
32038;SDS011;18549;42.286;22.688;2023-04-06T09:34:32;9.27;;;6.97;;
32038;SDS011;18549;42.286;22.688;2023-04-06T09:36:59;11.73;;;8.23;;
32038;SDS011;18549;42.286;22.688;2023-04-06T09:39:26;8.00;;;6.77;;
32038;SDS011;18549;42.286;22.688;2023-04-06T09:41:54;6.63;;;5.27;;
32038;SDS011;18549;42.286;22.688;2023-04-06T09:44:22;7.10;;;6.03;;
32038;SDS011;18549;42.286;22.688;2023-04-06T09:46:50;5.83;;;5.03;;
32038;SDS011;18549;42.286;22.688;2023-04-06T09:49:20;7.87;;;6.13;;
32038;SDS011;18549;42.286;22.688;2023-04-06T09:51:53;6.47;;;5.77;;
32038;SDS011;18549;42.286;22.688;2023-04-06T09:54:22;10.87;;;6.60;;
32038;SDS011;18549;42.286;22.688;2023-04-06T09:56:51;6.20;;;5.53;;
32038;SDS011;18549;42.286;22.688;2023-04-06T09:59:25;7.07;;;6.37;;
32038;SDS011;18549;42.286;22.688;2023-04-06T10:02:02;7.57;;;6.37;;
32038;SDS011;18549;42.286;22.688;2023-04-06T10:04:33;12.00;;;10.00;;
32038;SDS011;18549;42.286;22.688;2023-04-06T10:07:06;10.90;;;9.30;;
32038;SDS011;18549;42.286;22.688;2023-04-06T10:09:34;8.67;;;7.77;;
32038;SDS011;18549;42.286;22.688;2023-04-06T10:12:03;10.07;;;8.73;;
32038;SDS011;18549;42.286;22.688;2023-04-06T10:14:32;8.43;;;7.20;;
32038;SDS011;18549;42.286;22.688;2023-04-06T10:17:02;9.10;;;5.83;;
32038;SDS011;18549;42.286;22.688;2023-04-06T10:19:31;10.17;;;7.03;;
32038;SDS011;18549;42.286;22.688;2023-04-06T10:22:06;10.13;;;8.30;;
32038;SDS011;18549;42.286;22.688;2023-04-06T10:24:36;11.10;;;8.07;;
32038;SDS011;18549;42.286;22.688;2023-04-06T10:27:03;6.90;;;5.43;;
32038;SDS011;18549;42.286;22.688;2023-04-06T10:29:45;7.47;;;6.73;;
32038;SDS011;18549;42.286;22.688;2023-04-06T10:32:13;8.67;;;7.27;;
32038;SDS011;18549;42.286;22.688;2023-04-06T10:34:40;8.33;;;5.90;;
32038;SDS011;18549;42.286;22.688;2023-04-06T10:37:12;10.70;;;7.03;;
32038;SDS011;18549;42.286;22.688;2023-04-06T10:39:46;7.53;;;5.77;;
32038;SDS011;18549;42.286;22.688;2023-04-06T10:42:14;5.83;;;5.23;;
32038;SDS011;18549;42.286;22.688;2023-04-06T10:44:45;7.63;;;6.70;;
32038;SDS011;18549;42.286;22.688;2023-04-06T10:47:16;9.07;;;7.27;;
32038;SDS011;18549;42.286;22.688;2023-04-06T10:49:44;14.03;;;8.97;;
32038;SDS011;18549;42.286;22.688;2023-04-06T10:52:10;8.53;;;6.67;;
32038;SDS011;18549;42.286;22.688;2023-04-06T10:54:40;41.37;;;22.80;;
32038;SDS011;18549;42.286;22.688;2023-04-06T10:57:09;20.23;;;14.53;;
32038;SDS011;18549;42.286;22.688;2023-04-06T10:59:36;9.33;;;7.47;;
32038;SDS011;18549;42.286;22.688;2023-04-06T11:02:04;7.73;;;6.73;;
32038;SDS011;18549;42.286;22.688;2023-04-06T11:04:31;6.60;;;5.93;;
32038;SDS011;18549;42.286;22.688;2023-04-06T11:06:58;13.50;;;8.50;;
32038;SDS011;18549;42.286;22.688;2023-04-06T11:09:25;8.83;;;6.50;;
32038;SDS011;18549;42.286;22.688;2023-04-06T11:11:52;8.80;;;6.37;;
32038;SDS011;18549;42.286;22.688;2023-04-06T11:14:21;10.00;;;7.80;;
32038;SDS011;18549;42.286;22.688;2023-04-06T11:16:48;8.73;;;7.17;;
32038;SDS011;18549;42.286;22.688;2023-04-06T11:19:17;11.03;;;8.17;;
32038;SDS011;18549;42.286;22.688;2023-04-06T11:21:44;11.17;;;9.30;;
32038;SDS011;18549;42.286;22.688;2023-04-06T11:24:13;12.30;;;9.87;;
32038;SDS011;18549;42.286;22.688;2023-04-06T11:26:42;10.07;;;8.10;;
32038;SDS011;18549;42.286;22.688;2023-04-06T11:29:11;19.73;;;14.83;;
32038;SDS011;18549;42.286;22.688;2023-04-06T11:31:39;12.43;;;11.13;;
32038;SDS011;18549;42.286;22.688;2023-04-06T11:34:13;15.33;;;11.13;;
32038;SDS011;18549;42.286;22.688;2023-04-06T11:36:45;15.17;;;10.93;;
32038;SDS011;18549;42.286;22.688;2023-04-06T11:39:13;12.10;;;10.53;;
32038;SDS011;18549;42.286;22.688;2023-04-06T11:41:47;11.77;;;8.87;;
32038;SDS011;18549;42.286;22.688;2023-04-06T11:44:14;154.20;;;42.03;;
32038;SDS011;18549;42.286;22.688;2023-04-06T11:46:40;14.53;;;10.90;;
32038;SDS011;18549;42.286;22.688;2023-04-06T11:49:18;25.07;;;14.40;;
32038;SDS011;18549;42.286;22.688;2023-04-06T11:51:45;18.20;;;13.93;;
32038;SDS011;18549;42.286;22.688;2023-04-06T11:54:12;16.37;;;10.77;;
32038;SDS011;18549;42.286;22.688;2023-04-06T11:56:39;11.53;;;9.70;;
32038;SDS011;18549;42.286;22.688;2023-04-06T11:59:06;9.33;;;7.23;;
32038;SDS011;18549;42.286;22.688;2023-04-06T12:01:33;11.50;;;7.77;;
32038;SDS011;18549;42.286;22.688;2023-04-06T12:03:59;10.00;;;8.57;;
32038;SDS011;18549;42.286;22.688;2023-04-06T12:06:29;20.20;;;8.20;;
32038;SDS011;18549;42.286;22.688;2023-04-06T12:08:55;9.43;;;7.30;;
32038;SDS011;18549;42.286;22.688;2023-04-06T12:11:22;10.20;;;7.13;;
32038;SDS011;18549;42.286;22.688;2023-04-06T12:13:49;33.17;;;24.07;;
32038;SDS011;18549;42.286;22.688;2023-04-06T12:16:16;47.03;;;27.77;;
32038;SDS011;18549;42.286;22.688;2023-04-06T12:18:44;27.87;;;17.23;;
32038;SDS011;18549;42.286;22.688;2023-04-06T12:21:11;20.00;;;10.83;;
32038;SDS011;18549;42.286;22.688;2023-04-06T12:23:39;13.83;;;9.13;;
32038;SDS011;18549;42.286;22.688;2023-04-06T12:26:06;8.63;;;7.73;;
32038;SDS011;18549;42.286;22.688;2023-04-06T12:28:32;11.47;;;8.80;;
32038;SDS011;18549;42.286;22.688;2023-04-06T12:31:02;12.30;;;8.23;;
32038;SDS011;18549;42.286;22.688;2023-04-06T12:33:28;10.97;;;8.17;;
32038;SDS011;18549;42.286;22.688;2023-04-06T12:35:55;10.77;;;8.60;;
32038;SDS011;18549;42.286;22.688;2023-04-06T12:38:22;10.73;;;7.73;;
32038;SDS011;18549;42.286;22.688;2023-04-06T12:40:51;11.77;;;8.10;;
32038;SDS011;18549;42.286;22.688;2023-04-06T12:43:17;9.57;;;8.17;;
32038;SDS011;18549;42.286;22.688;2023-04-06T12:45:44;15.40;;;7.73;;
32038;SDS011;18549;42.286;22.688;2023-04-06T12:48:11;10.07;;;8.97;;
32038;SDS011;18549;42.286;22.688;2023-04-06T12:50:38;16.17;;;10.20;;
32038;SDS011;18549;42.286;22.688;2023-04-06T12:53:04;13.17;;;10.17;;
32038;SDS011;18549;42.286;22.688;2023-04-06T12:55:31;18.90;;;10.43;;
32038;SDS011;18549;42.286;22.688;2023-04-06T12:58:02;14.43;;;10.57;;
32038;SDS011;18549;42.286;22.688;2023-04-06T13:00:28;13.43;;;9.93;;
32038;SDS011;18549;42.286;22.688;2023-04-06T13:02:55;10.97;;;8.27;;
32038;SDS011;18549;42.286;22.688;2023-04-06T13:05:22;13.57;;;10.67;;
32038;SDS011;18549;42.286;22.688;2023-04-06T13:07:49;12.87;;;10.50;;
32038;SDS011;18549;42.286;22.688;2023-04-06T13:10:16;11.03;;;9.47;;
32038;SDS011;18549;42.286;22.688;2023-04-06T13:12:43;10.60;;;8.93;;
32038;SDS011;18549;42.286;22.688;2023-04-06T13:15:11;11.23;;;8.97;;
32038;SDS011;18549;42.286;22.688;2023-04-06T13:17:38;16.80;;;10.97;;
32038;SDS011;18549;42.286;22.688;2023-04-06T13:20:06;11.60;;;10.03;;
32038;SDS011;18549;42.286;22.688;2023-04-06T13:22:33;13.20;;;11.00;;
32038;SDS011;18549;42.286;22.688;2023-04-06T13:25:00;13.70;;;10.93;;
32038;SDS011;18549;42.286;22.688;2023-04-06T13:27:27;13.50;;;10.63;;
32038;SDS011;18549;42.286;22.688;2023-04-06T13:29:54;14.40;;;9.80;;
32038;SDS011;18549;42.286;22.688;2023-04-06T13:32:23;11.97;;;9.33;;
32038;SDS011;18549;42.286;22.688;2023-04-06T13:34:50;12.40;;;9.67;;
32038;SDS011;18549;42.286;22.688;2023-04-06T13:37:20;12.40;;;9.70;;
32038;SDS011;18549;42.286;22.688;2023-04-06T13:39:47;19.63;;;13.13;;
32038;SDS011;18549;42.286;22.688;2023-04-06T13:42:14;21.30;;;11.17;;
32038;SDS011;18549;42.286;22.688;2023-04-06T13:44:41;21.60;;;9.03;;
32038;SDS011;18549;42.286;22.688;2023-04-06T13:47:07;14.70;;;9.13;;
32038;SDS011;18549;42.286;22.688;2023-04-06T13:49:36;11.43;;;9.20;;
32038;SDS011;18549;42.286;22.688;2023-04-06T13:52:03;12.47;;;8.77;;
32038;SDS011;18549;42.286;22.688;2023-04-06T13:54:29;13.97;;;9.83;;
32038;SDS011;18549;42.286;22.688;2023-04-06T13:56:56;14.57;;;9.43;;
32038;SDS011;18549;42.286;22.688;2023-04-06T13:59:23;18.27;;;10.80;;
32038;SDS011;18549;42.286;22.688;2023-04-06T14:01:50;13.17;;;10.20;;
32038;SDS011;18549;42.286;22.688;2023-04-06T14:04:16;13.37;;;9.20;;
32038;SDS011;18549;42.286;22.688;2023-04-06T14:06:45;14.83;;;9.03;;
32038;SDS011;18549;42.286;22.688;2023-04-06T14:09:12;17.07;;;9.33;;
32038;SDS011;18549;42.286;22.688;2023-04-06T14:11:39;12.23;;;8.47;;
32038;SDS011;18549;42.286;22.688;2023-04-06T14:14:06;14.47;;;10.43;;
32038;SDS011;18549;42.286;22.688;2023-04-06T14:16:33;15.77;;;11.20;;
32038;SDS011;18549;42.286;22.688;2023-04-06T14:18:59;21.97;;;11.37;;
32038;SDS011;18549;42.286;22.688;2023-04-06T14:21:26;14.83;;;10.67;;
32038;SDS011;18549;42.286;22.688;2023-04-06T14:23:54;11.47;;;8.40;;
32038;SDS011;18549;42.286;22.688;2023-04-06T14:26:21;10.60;;;8.13;;
32038;SDS011;18549;42.286;22.688;2023-04-06T14:28:48;11.67;;;7.37;;
32038;SDS011;18549;42.286;22.688;2023-04-06T14:31:15;14.63;;;9.83;;
32038;SDS011;18549;42.286;22.688;2023-04-06T14:33:42;27.70;;;17.23;;
32038;SDS011;18549;42.286;22.688;2023-04-06T14:36:09;47.37;;;19.17;;
32038;SDS011;18549;42.286;22.688;2023-04-06T14:38:36;19.93;;;15.20;;
32038;SDS011;18549;42.286;22.688;2023-04-06T14:41:04;26.73;;;20.73;;